sensor_id;sensor_type;location;lat;lon;timestamp;P1;durP1;ratioP1;P2;durP2;ratioP2
67500;SDS011;54349;52.528;19.760;2023-04-10T00:00:24;6.90;;;4.50;;
67500;SDS011;54349;52.528;19.760;2023-04-10T00:06:19;6.80;;;4.50;;
67500;SDS011;54349;52.528;19.760;2023-04-10T00:08:47;7.00;;;4.30;;
67500;SDS011;54349;52.528;19.760;2023-04-10T00:11:16;6.60;;;4.00;;
67500;SDS011;54349;52.528;19.760;2023-04-10T00:13:45;7.10;;;4.10;;
67500;SDS011;54349;52.528;19.760;2023-04-10T00:16:16;6.30;;;3.90;;
67500;SDS011;54349;52.528;19.760;2023-04-10T00:18:46;6.50;;;4.00;;
67500;SDS011;54349;52.528;19.760;2023-04-10T00:21:16;6.30;;;3.80;;
67500;SDS011;54349;52.528;19.760;2023-04-10T00:23:46;5.80;;;3.70;;
67500;SDS011;54349;52.528;19.760;2023-04-10T00:26:14;6.00;;;3.60;;
67500;SDS011;54349;52.528;19.760;2023-04-10T00:28:44;6.70;;;4.10;;
67500;SDS011;54349;52.528;19.760;2023-04-10T00:31:13;6.10;;;4.00;;
67500;SDS011;54349;52.528;19.760;2023-04-10T00:33:42;5.80;;;3.80;;
67500;SDS011;54349;52.528;19.760;2023-04-10T00:36:11;5.80;;;3.70;;
67500;SDS011;54349;52.528;19.760;2023-04-10T00:38:41;5.60;;;3.70;;
67500;SDS011;54349;52.528;19.760;2023-04-10T00:41:09;6.50;;;4.10;;
67500;SDS011;54349;52.528;19.760;2023-04-10T00:43:38;6.50;;;4.00;;
67500;SDS011;54349;52.528;19.760;2023-04-10T00:46:07;6.90;;;3.90;;
67500;SDS011;54349;52.528;19.760;2023-04-10T00:48:36;6.50;;;3.80;;
67500;SDS011;54349;52.528;19.760;2023-04-10T00:51:05;6.90;;;4.00;;
67500;SDS011;54349;52.528;19.760;2023-04-10T00:53:35;6.30;;;3.90;;
67500;SDS011;54349;52.528;19.760;2023-04-10T00:56:04;5.70;;;3.80;;
67500;SDS011;54349;52.528;19.760;2023-04-10T00:58:34;7.30;;;4.50;;
67500;SDS011;54349;52.528;19.760;2023-04-10T01:01:02;5.60;;;3.70;;
67500;SDS011;54349;52.528;19.760;2023-04-10T01:03:31;5.80;;;3.80;;
67500;SDS011;54349;52.528;19.760;2023-04-10T01:06:20;6.90;;;4.30;;
67500;SDS011;54349;52.528;19.760;2023-04-10T01:12:44;6.40;;;4.00;;
67500;SDS011;54349;52.528;19.760;2023-04-10T01:15:27;6.10;;;3.90;;
67500;SDS011;54349;52.528;19.760;2023-04-10T01:20:45;6.60;;;4.10;;
67500;SDS011;54349;52.528;19.760;2023-04-10T01:26:05;6.10;;;4.10;;
67500;SDS011;54349;52.528;19.760;2023-04-10T01:31:36;7.00;;;4.40;;
67500;SDS011;54349;52.528;19.760;2023-04-10T01:34:15;7.20;;;4.20;;
67500;SDS011;54349;52.528;19.760;2023-04-10T01:37:04;6.20;;;4.40;;
67500;SDS011;54349;52.528;19.760;2023-04-10T01:39:41;7.20;;;4.80;;
67500;SDS011;54349;52.528;19.760;2023-04-10T01:42:13;6.90;;;4.80;;
67500;SDS011;54349;52.528;19.760;2023-04-10T01:44:45;6.60;;;4.20;;
67500;SDS011;54349;52.528;19.760;2023-04-10T01:47:15;8.00;;;4.60;;
67500;SDS011;54349;52.528;19.760;2023-04-10T01:49:46;6.70;;;4.60;;
67500;SDS011;54349;52.528;19.760;2023-04-10T01:52:17;6.00;;;4.10;;
67500;SDS011;54349;52.528;19.760;2023-04-10T01:54:52;8.50;;;4.80;;
67500;SDS011;54349;52.528;19.760;2023-04-10T01:57:33;8.30;;;4.90;;
67500;SDS011;54349;52.528;19.760;2023-04-10T02:00:05;7.20;;;4.50;;
67500;SDS011;54349;52.528;19.760;2023-04-10T02:02:43;7.90;;;4.70;;
67500;SDS011;54349;52.528;19.760;2023-04-10T02:05:15;7.20;;;4.60;;
67500;SDS011;54349;52.528;19.760;2023-04-10T02:08:04;7.40;;;4.40;;
67500;SDS011;54349;52.528;19.760;2023-04-10T02:13:41;6.80;;;4.60;;
67500;SDS011;54349;52.528;19.760;2023-04-10T02:16:13;7.20;;;4.90;;
67500;SDS011;54349;52.528;19.760;2023-04-10T02:18:48;7.70;;;4.70;;
67500;SDS011;54349;52.528;19.760;2023-04-10T02:21:18;7.20;;;4.90;;
67500;SDS011;54349;52.528;19.760;2023-04-10T02:23:49;7.30;;;4.70;;
67500;SDS011;54349;52.528;19.760;2023-04-10T02:26:18;8.80;;;4.80;;
67500;SDS011;54349;52.528;19.760;2023-04-10T02:28:47;8.80;;;4.90;;
67500;SDS011;54349;52.528;19.760;2023-04-10T02:31:16;8.50;;;5.00;;
67500;SDS011;54349;52.528;19.760;2023-04-10T02:33:45;8.30;;;4.60;;
67500;SDS011;54349;52.528;19.760;2023-04-10T02:36:18;7.80;;;5.00;;
67500;SDS011;54349;52.528;19.760;2023-04-10T02:38:48;8.70;;;4.50;;
67500;SDS011;54349;52.528;19.760;2023-04-10T02:41:16;6.90;;;4.80;;
67500;SDS011;54349;52.528;19.760;2023-04-10T02:43:45;8.20;;;4.60;;
67500;SDS011;54349;52.528;19.760;2023-04-10T02:46:14;6.90;;;4.40;;
67500;SDS011;54349;52.528;19.760;2023-04-10T02:48:44;7.80;;;4.70;;
67500;SDS011;54349;52.528;19.760;2023-04-10T02:51:13;8.40;;;4.60;;
67500;SDS011;54349;52.528;19.760;2023-04-10T02:53:44;7.80;;;4.70;;
67500;SDS011;54349;52.528;19.760;2023-04-10T02:56:17;7.80;;;4.60;;
67500;SDS011;54349;52.528;19.760;2023-04-10T02:58:46;7.80;;;5.00;;
67500;SDS011;54349;52.528;19.760;2023-04-10T03:01:15;7.70;;;4.80;;
67500;SDS011;54349;52.528;19.760;2023-04-10T03:03:47;7.60;;;5.00;;
67500;SDS011;54349;52.528;19.760;2023-04-10T03:06:26;7.50;;;5.10;;
67500;SDS011;54349;52.528;19.760;2023-04-10T03:08:57;7.40;;;5.10;;
67500;SDS011;54349;52.528;19.760;2023-04-10T03:11:26;8.40;;;4.90;;
67500;SDS011;54349;52.528;19.760;2023-04-10T03:13:55;8.70;;;5.10;;
67500;SDS011;54349;52.528;19.760;2023-04-10T03:16:26;7.50;;;5.00;;
67500;SDS011;54349;52.528;19.760;2023-04-10T03:18:55;7.10;;;4.80;;
67500;SDS011;54349;52.528;19.760;2023-04-10T03:21:24;8.40;;;5.00;;
67500;SDS011;54349;52.528;19.760;2023-04-10T03:23:52;8.00;;;5.30;;
67500;SDS011;54349;52.528;19.760;2023-04-10T03:26:21;8.80;;;5.20;;
67500;SDS011;54349;52.528;19.760;2023-04-10T03:28:54;8.60;;;5.10;;
67500;SDS011;54349;52.528;19.760;2023-04-10T03:31:22;8.60;;;5.10;;
67500;SDS011;54349;52.528;19.760;2023-04-10T03:33:54;9.00;;;5.40;;
67500;SDS011;54349;52.528;19.760;2023-04-10T03:36:23;8.90;;;5.10;;
67500;SDS011;54349;52.528;19.760;2023-04-10T03:38:51;8.30;;;5.10;;
67500;SDS011;54349;52.528;19.760;2023-04-10T03:41:19;7.80;;;5.20;;
67500;SDS011;54349;52.528;19.760;2023-04-10T03:43:52;6.90;;;4.60;;
67500;SDS011;54349;52.528;19.760;2023-04-10T03:46:21;8.60;;;5.00;;
67500;SDS011;54349;52.528;19.760;2023-04-10T03:48:50;8.50;;;5.20;;
67500;SDS011;54349;52.528;19.760;2023-04-10T03:51:22;7.60;;;5.20;;
67500;SDS011;54349;52.528;19.760;2023-04-10T03:53:51;7.80;;;4.70;;
67500;SDS011;54349;52.528;19.760;2023-04-10T03:56:20;8.40;;;4.70;;
67500;SDS011;54349;52.528;19.760;2023-04-10T03:58:49;7.00;;;4.80;;
67500;SDS011;54349;52.528;19.760;2023-04-10T04:01:18;8.60;;;5.10;;
67500;SDS011;54349;52.528;19.760;2023-04-10T04:04:02;9.40;;;5.10;;
67500;SDS011;54349;52.528;19.760;2023-04-10T04:06:50;6.40;;;4.80;;
67500;SDS011;54349;52.528;19.760;2023-04-10T04:12:40;7.30;;;4.80;;
67500;SDS011;54349;52.528;19.760;2023-04-10T04:15:47;8.20;;;4.70;;
67500;SDS011;54349;52.528;19.760;2023-04-10T04:18:24;7.80;;;5.00;;
67500;SDS011;54349;52.528;19.760;2023-04-10T04:21:01;7.70;;;4.60;;
67500;SDS011;54349;52.528;19.760;2023-04-10T04:23:55;8.00;;;4.60;;
67500;SDS011;54349;52.528;19.760;2023-04-10T04:26:44;8.30;;;4.70;;
67500;SDS011;54349;52.528;19.760;2023-04-10T04:29:30;8.60;;;4.70;;
67500;SDS011;54349;52.528;19.760;2023-04-10T04:32:11;8.80;;;4.90;;
67500;SDS011;54349;52.528;19.760;2023-04-10T04:35:07;7.60;;;4.80;;
67500;SDS011;54349;52.528;19.760;2023-04-10T04:37:57;6.30;;;4.60;;
67500;SDS011;54349;52.528;19.760;2023-04-10T04:40:42;7.20;;;4.70;;
67500;SDS011;54349;52.528;19.760;2023-04-10T04:43:40;7.90;;;4.90;;
67500;SDS011;54349;52.528;19.760;2023-04-10T04:46:38;7.70;;;4.70;;
67500;SDS011;54349;52.528;19.760;2023-04-10T04:49:30;8.60;;;4.80;;
67500;SDS011;54349;52.528;19.760;2023-04-10T04:52:18;6.80;;;4.10;;
67500;SDS011;54349;52.528;19.760;2023-04-10T04:55:07;8.50;;;4.80;;
67500;SDS011;54349;52.528;19.760;2023-04-10T04:57:56;8.30;;;4.70;;
67500;SDS011;54349;52.528;19.760;2023-04-10T05:00:37;6.80;;;4.60;;
67500;SDS011;54349;52.528;19.760;2023-04-10T05:03:25;7.10;;;4.70;;
67500;SDS011;54349;52.528;19.760;2023-04-10T05:06:12;7.90;;;4.60;;
67500;SDS011;54349;52.528;19.760;2023-04-10T05:09:11;8.80;;;5.40;;
67500;SDS011;54349;52.528;19.760;2023-04-10T05:11:55;6.90;;;4.50;;
67500;SDS011;54349;52.528;19.760;2023-04-10T05:14:45;7.50;;;4.70;;
67500;SDS011;54349;52.528;19.760;2023-04-10T05:17:28;8.10;;;4.70;;
67500;SDS011;54349;52.528;19.760;2023-04-10T05:20:19;7.40;;;4.50;;
67500;SDS011;54349;52.528;19.760;2023-04-10T05:23:16;6.60;;;4.00;;
67500;SDS011;54349;52.528;19.760;2023-04-10T05:25:55;7.10;;;4.20;;
67500;SDS011;54349;52.528;19.760;2023-04-10T05:29:03;7.00;;;4.20;;
67500;SDS011;54349;52.528;19.760;2023-04-10T05:31:49;7.30;;;4.10;;
67500;SDS011;54349;52.528;19.760;2023-04-10T05:34:40;6.30;;;4.40;;
67500;SDS011;54349;52.528;19.760;2023-04-10T05:37:12;7.10;;;4.70;;
67500;SDS011;54349;52.528;19.760;2023-04-10T05:40:12;7.40;;;4.50;;
67500;SDS011;54349;52.528;19.760;2023-04-10T05:43:00;7.30;;;4.70;;
67500;SDS011;54349;52.528;19.760;2023-04-10T05:45:35;8.00;;;5.10;;
67500;SDS011;54349;52.528;19.760;2023-04-10T05:48:20;7.80;;;4.80;;
67500;SDS011;54349;52.528;19.760;2023-04-10T05:51:12;6.50;;;4.30;;
67500;SDS011;54349;52.528;19.760;2023-04-10T05:54:01;7.60;;;4.60;;
67500;SDS011;54349;52.528;19.760;2023-04-10T05:56:54;7.00;;;4.70;;
67500;SDS011;54349;52.528;19.760;2023-04-10T05:59:42;8.40;;;4.30;;
67500;SDS011;54349;52.528;19.760;2023-04-10T06:02:19;6.60;;;4.50;;
67500;SDS011;54349;52.528;19.760;2023-04-10T06:04:50;7.30;;;4.60;;
67500;SDS011;54349;52.528;19.760;2023-04-10T06:07:18;7.30;;;4.20;;
67500;SDS011;54349;52.528;19.760;2023-04-10T06:09:47;7.00;;;4.50;;
67500;SDS011;54349;52.528;19.760;2023-04-10T06:12:15;7.40;;;4.10;;
67500;SDS011;54349;52.528;19.760;2023-04-10T06:14:46;6.20;;;4.20;;
67500;SDS011;54349;52.528;19.760;2023-04-10T06:17:18;8.30;;;4.20;;
67500;SDS011;54349;52.528;19.760;2023-04-10T06:19:48;7.30;;;4.60;;
67500;SDS011;54349;52.528;19.760;2023-04-10T06:22:17;6.90;;;4.30;;
67500;SDS011;54349;52.528;19.760;2023-04-10T06:24:46;6.70;;;4.50;;
67500;SDS011;54349;52.528;19.760;2023-04-10T06:27:15;7.10;;;4.30;;
67500;SDS011;54349;52.528;19.760;2023-04-10T06:29:46;7.00;;;4.20;;
67500;SDS011;54349;52.528;19.760;2023-04-10T06:32:15;7.20;;;4.30;;
67500;SDS011;54349;52.528;19.760;2023-04-10T06:34:44;7.30;;;4.60;;
67500;SDS011;54349;52.528;19.760;2023-04-10T06:37:18;7.20;;;4.40;;
67500;SDS011;54349;52.528;19.760;2023-04-10T06:39:48;6.60;;;4.20;;
67500;SDS011;54349;52.528;19.760;2023-04-10T06:42:16;7.40;;;4.40;;
67500;SDS011;54349;52.528;19.760;2023-04-10T06:44:57;7.70;;;4.50;;
67500;SDS011;54349;52.528;19.760;2023-04-10T06:47:26;7.80;;;4.40;;
67500;SDS011;54349;52.528;19.760;2023-04-10T06:49:57;6.60;;;4.50;;
67500;SDS011;54349;52.528;19.760;2023-04-10T06:52:27;7.00;;;4.20;;
67500;SDS011;54349;52.528;19.760;2023-04-10T06:54:56;7.60;;;4.20;;
67500;SDS011;54349;52.528;19.760;2023-04-10T06:57:24;8.70;;;4.40;;
67500;SDS011;54349;52.528;19.760;2023-04-10T06:59:53;7.80;;;4.40;;
67500;SDS011;54349;52.528;19.760;2023-04-10T07:02:23;6.60;;;4.10;;
67500;SDS011;54349;52.528;19.760;2023-04-10T07:04:57;6.10;;;4.30;;
67500;SDS011;54349;52.528;19.760;2023-04-10T07:07:26;7.10;;;4.60;;
67500;SDS011;54349;52.528;19.760;2023-04-10T07:09:56;6.60;;;4.20;;
67500;SDS011;54349;52.528;19.760;2023-04-10T07:12:25;7.30;;;4.30;;
67500;SDS011;54349;52.528;19.760;2023-04-10T07:14:54;6.60;;;4.10;;
67500;SDS011;54349;52.528;19.760;2023-04-10T07:17:24;7.60;;;4.50;;
67500;SDS011;54349;52.528;19.760;2023-04-10T07:19:54;7.90;;;4.50;;
67500;SDS011;54349;52.528;19.760;2023-04-10T07:22:23;6.40;;;4.30;;
67500;SDS011;54349;52.528;19.760;2023-04-10T07:24:52;7.20;;;4.20;;
67500;SDS011;54349;52.528;19.760;2023-04-10T07:27:20;7.50;;;4.40;;
67500;SDS011;54349;52.528;19.760;2023-04-10T07:29:54;6.40;;;4.20;;
67500;SDS011;54349;52.528;19.760;2023-04-10T07:32:23;7.50;;;4.80;;
67500;SDS011;54349;52.528;19.760;2023-04-10T07:34:54;8.00;;;4.10;;
67500;SDS011;54349;52.528;19.760;2023-04-10T07:37:23;7.30;;;4.50;;
67500;SDS011;54349;52.528;19.760;2023-04-10T07:39:51;7.00;;;4.50;;
67500;SDS011;54349;52.528;19.760;2023-04-10T07:42:20;6.20;;;4.30;;
67500;SDS011;54349;52.528;19.760;2023-04-10T07:44:49;7.20;;;4.80;;
67500;SDS011;54349;52.528;19.760;2023-04-10T07:47:20;6.30;;;4.30;;
67500;SDS011;54349;52.528;19.760;2023-04-10T07:49:48;7.20;;;4.60;;
67500;SDS011;54349;52.528;19.760;2023-04-10T07:52:17;7.30;;;4.20;;
67500;SDS011;54349;52.528;19.760;2023-04-10T07:54:47;7.20;;;4.40;;
67500;SDS011;54349;52.528;19.760;2023-04-10T07:57:15;6.40;;;4.30;;
67500;SDS011;54349;52.528;19.760;2023-04-10T07:59:45;7.30;;;4.80;;
67500;SDS011;54349;52.528;19.760;2023-04-10T08:02:16;7.60;;;4.20;;
67500;SDS011;54349;52.528;19.760;2023-04-10T08:04:45;7.20;;;4.60;;
67500;SDS011;54349;52.528;19.760;2023-04-10T08:07:14;8.30;;;4.50;;
67500;SDS011;54349;52.528;19.760;2023-04-10T08:09:42;7.70;;;4.60;;
67500;SDS011;54349;52.528;19.760;2023-04-10T08:12:11;7.00;;;4.50;;
67500;SDS011;54349;52.528;19.760;2023-04-10T08:14:39;6.60;;;4.50;;
67500;SDS011;54349;52.528;19.760;2023-04-10T08:17:08;7.90;;;4.90;;
67500;SDS011;54349;52.528;19.760;2023-04-10T08:19:42;7.10;;;4.70;;
67500;SDS011;54349;52.528;19.760;2023-04-10T08:22:11;7.60;;;4.50;;
67500;SDS011;54349;52.528;19.760;2023-04-10T08:24:40;6.90;;;4.40;;
67500;SDS011;54349;52.528;19.760;2023-04-10T08:27:08;6.80;;;4.50;;
67500;SDS011;54349;52.528;19.760;2023-04-10T08:29:37;7.10;;;4.60;;
67500;SDS011;54349;52.528;19.760;2023-04-10T08:32:05;6.80;;;4.60;;
67500;SDS011;54349;52.528;19.760;2023-04-10T08:34:35;6.20;;;4.40;;
67500;SDS011;54349;52.528;19.760;2023-04-10T08:37:06;6.40;;;4.30;;
67500;SDS011;54349;52.528;19.760;2023-04-10T08:39:38;6.40;;;4.30;;
67500;SDS011;54349;52.528;19.760;2023-04-10T08:42:07;8.20;;;4.90;;
67500;SDS011;54349;52.528;19.760;2023-04-10T08:44:35;7.10;;;5.00;;
67500;SDS011;54349;52.528;19.760;2023-04-10T08:47:05;7.40;;;4.70;;
67500;SDS011;54349;52.528;19.760;2023-04-10T08:49:55;6.80;;;4.20;;
67500;SDS011;54349;52.528;19.760;2023-04-10T08:52:25;7.40;;;4.40;;
67500;SDS011;54349;52.528;19.760;2023-04-10T08:54:56;7.40;;;4.70;;
67500;SDS011;54349;52.528;19.760;2023-04-10T08:57:28;7.60;;;4.80;;
67500;SDS011;54349;52.528;19.760;2023-04-10T09:00:03;7.30;;;4.70;;
67500;SDS011;54349;52.528;19.760;2023-04-10T09:02:49;6.50;;;4.10;;
67500;SDS011;54349;52.528;19.760;2023-04-10T09:05:24;6.90;;;4.40;;
67500;SDS011;54349;52.528;19.760;2023-04-10T09:07:54;7.00;;;4.40;;
67500;SDS011;54349;52.528;19.760;2023-04-10T09:10:22;6.30;;;4.50;;
67500;SDS011;54349;52.528;19.760;2023-04-10T09:12:51;6.50;;;4.50;;
67500;SDS011;54349;52.528;19.760;2023-04-10T09:15:19;6.70;;;4.50;;
67500;SDS011;54349;52.528;19.760;2023-04-10T09:18:02;6.60;;;4.40;;
67500;SDS011;54349;52.528;19.760;2023-04-10T09:20:31;8.00;;;4.60;;
67500;SDS011;54349;52.528;19.760;2023-04-10T09:23:00;7.00;;;4.40;;
67500;SDS011;54349;52.528;19.760;2023-04-10T09:25:47;7.10;;;4.70;;
67500;SDS011;54349;52.528;19.760;2023-04-10T09:28:18;6.90;;;4.10;;
67500;SDS011;54349;52.528;19.760;2023-04-10T09:30:46;7.00;;;4.40;;
67500;SDS011;54349;52.528;19.760;2023-04-10T09:33:26;6.00;;;4.20;;
67500;SDS011;54349;52.528;19.760;2023-04-10T09:35:57;6.60;;;4.20;;
67500;SDS011;54349;52.528;19.760;2023-04-10T09:38:31;6.80;;;4.40;;
67500;SDS011;54349;52.528;19.760;2023-04-10T09:41:06;6.00;;;4.00;;
67500;SDS011;54349;52.528;19.760;2023-04-10T09:43:37;7.10;;;3.90;;
67500;SDS011;54349;52.528;19.760;2023-04-10T09:46:09;6.60;;;3.90;;
67500;SDS011;54349;52.528;19.760;2023-04-10T09:48:53;6.70;;;4.20;;
67500;SDS011;54349;52.528;19.760;2023-04-10T09:51:33;6.10;;;4.30;;
67500;SDS011;54349;52.528;19.760;2023-04-10T09:54:04;7.50;;;4.30;;
67500;SDS011;54349;52.528;19.760;2023-04-10T09:56:35;6.70;;;3.80;;
67500;SDS011;54349;52.528;19.760;2023-04-10T09:59:06;6.00;;;3.90;;
67500;SDS011;54349;52.528;19.760;2023-04-10T10:01:38;6.90;;;4.30;;
67500;SDS011;54349;52.528;19.760;2023-04-10T10:04:08;5.70;;;3.90;;
67500;SDS011;54349;52.528;19.760;2023-04-10T10:06:40;5.90;;;3.80;;
67500;SDS011;54349;52.528;19.760;2023-04-10T10:09:09;5.60;;;3.50;;
67500;SDS011;54349;52.528;19.760;2023-04-10T10:11:38;6.00;;;4.10;;
67500;SDS011;54349;52.528;19.760;2023-04-10T10:14:14;7.00;;;3.90;;
67500;SDS011;54349;52.528;19.760;2023-04-10T10:16:49;5.90;;;3.80;;
67500;SDS011;54349;52.528;19.760;2023-04-10T10:19:32;5.70;;;3.80;;
67500;SDS011;54349;52.528;19.760;2023-04-10T10:24:58;5.40;;;3.70;;
67500;SDS011;54349;52.528;19.760;2023-04-10T10:27:30;5.70;;;3.80;;
67500;SDS011;54349;52.528;19.760;2023-04-10T10:30:03;5.70;;;3.80;;
67500;SDS011;54349;52.528;19.760;2023-04-10T10:32:52;5.00;;;3.40;;
67500;SDS011;54349;52.528;19.760;2023-04-10T10:35:24;5.20;;;3.60;;
67500;SDS011;54349;52.528;19.760;2023-04-10T10:37:59;6.50;;;3.50;;
67500;SDS011;54349;52.528;19.760;2023-04-10T10:46:40;6.50;;;3.60;;
67500;SDS011;54349;52.528;19.760;2023-04-10T10:49:17;7.40;;;3.80;;
67500;SDS011;54349;52.528;19.760;2023-04-10T10:51:49;6.90;;;3.80;;
67500;SDS011;54349;52.528;19.760;2023-04-10T10:56:59;8.70;;;4.30;;
67500;SDS011;54349;52.528;19.760;2023-04-10T11:02:18;10.70;;;4.10;;
67500;SDS011;54349;52.528;19.760;2023-04-10T11:04:50;6.60;;;3.80;;
67500;SDS011;54349;52.528;19.760;2023-04-10T11:07:20;10.10;;;4.10;;
67500;SDS011;54349;52.528;19.760;2023-04-10T11:09:52;7.90;;;4.20;;
67500;SDS011;54349;52.528;19.760;2023-04-10T11:12:26;8.70;;;4.30;;
67500;SDS011;54349;52.528;19.760;2023-04-10T11:15:00;10.00;;;4.40;;
67500;SDS011;54349;52.528;19.760;2023-04-10T11:17:50;11.40;;;3.90;;
67500;SDS011;54349;52.528;19.760;2023-04-10T11:20:21;8.50;;;3.90;;
67500;SDS011;54349;52.528;19.760;2023-04-10T11:26:06;8.40;;;4.10;;
67500;SDS011;54349;52.528;19.760;2023-04-10T11:28:36;9.80;;;4.10;;
67500;SDS011;54349;52.528;19.760;2023-04-10T11:33:59;9.80;;;4.40;;
67500;SDS011;54349;52.528;19.760;2023-04-10T11:36:30;9.10;;;4.10;;
67500;SDS011;54349;52.528;19.760;2023-04-10T11:39:02;10.10;;;4.10;;
67500;SDS011;54349;52.528;19.760;2023-04-10T11:42:00;9.30;;;3.70;;
67500;SDS011;54349;52.528;19.760;2023-04-10T11:44:30;9.00;;;4.10;;
67500;SDS011;54349;52.528;19.760;2023-04-10T11:47:03;7.80;;;3.80;;
67500;SDS011;54349;52.528;19.760;2023-04-10T11:49:33;8.60;;;3.80;;
67500;SDS011;54349;52.528;19.760;2023-04-10T11:52:02;10.70;;;4.40;;
67500;SDS011;54349;52.528;19.760;2023-04-10T11:54:31;8.90;;;4.20;;
67500;SDS011;54349;52.528;19.760;2023-04-10T11:57:02;8.80;;;4.30;;
67500;SDS011;54349;52.528;19.760;2023-04-10T11:59:33;10.00;;;4.20;;
67500;SDS011;54349;52.528;19.760;2023-04-10T12:02:13;9.20;;;4.30;;
67500;SDS011;54349;52.528;19.760;2023-04-10T12:04:43;12.70;;;4.70;;
67500;SDS011;54349;52.528;19.760;2023-04-10T12:07:11;7.90;;;3.90;;
67500;SDS011;54349;52.528;19.760;2023-04-10T12:09:40;8.90;;;4.00;;
67500;SDS011;54349;52.528;19.760;2023-04-10T12:12:09;8.40;;;3.90;;
67500;SDS011;54349;52.528;19.760;2023-04-10T12:14:40;9.60;;;4.00;;
67500;SDS011;54349;52.528;19.760;2023-04-10T12:17:10;11.00;;;4.30;;
67500;SDS011;54349;52.528;19.760;2023-04-10T12:19:40;7.10;;;3.80;;
67500;SDS011;54349;52.528;19.760;2023-04-10T12:22:10;8.50;;;3.90;;
67500;SDS011;54349;52.528;19.760;2023-04-10T12:27:24;9.90;;;4.50;;
67500;SDS011;54349;52.528;19.760;2023-04-10T12:29:56;8.60;;;3.80;;
67500;SDS011;54349;52.528;19.760;2023-04-10T12:32:25;9.30;;;4.20;;
67500;SDS011;54349;52.528;19.760;2023-04-10T12:34:55;6.60;;;3.60;;
67500;SDS011;54349;52.528;19.760;2023-04-10T12:37:51;8.60;;;3.70;;
67500;SDS011;54349;52.528;19.760;2023-04-10T12:40:22;10.00;;;4.00;;
67500;SDS011;54349;52.528;19.760;2023-04-10T12:42:53;7.80;;;3.90;;
67500;SDS011;54349;52.528;19.760;2023-04-10T12:45:40;8.20;;;4.10;;
67500;SDS011;54349;52.528;19.760;2023-04-10T12:48:10;9.90;;;4.20;;
67500;SDS011;54349;52.528;19.760;2023-04-10T12:50:46;9.00;;;3.80;;
67500;SDS011;54349;52.528;19.760;2023-04-10T12:53:15;7.70;;;3.90;;
67500;SDS011;54349;52.528;19.760;2023-04-10T12:56:00;5.60;;;3.50;;
67500;SDS011;54349;52.528;19.760;2023-04-10T12:58:30;8.60;;;4.20;;
67500;SDS011;54349;52.528;19.760;2023-04-10T13:01:07;8.10;;;3.80;;
67500;SDS011;54349;52.528;19.760;2023-04-10T13:03:36;6.80;;;3.80;;
67500;SDS011;54349;52.528;19.760;2023-04-10T13:06:06;8.40;;;4.20;;
67500;SDS011;54349;52.528;19.760;2023-04-10T13:08:35;9.80;;;4.00;;
67500;SDS011;54349;52.528;19.760;2023-04-10T13:11:04;9.40;;;4.00;;
67500;SDS011;54349;52.528;19.760;2023-04-10T13:13:35;7.00;;;3.80;;
67500;SDS011;54349;52.528;19.760;2023-04-10T13:16:04;5.90;;;3.40;;
67500;SDS011;54349;52.528;19.760;2023-04-10T13:18:39;8.40;;;3.70;;
67500;SDS011;54349;52.528;19.760;2023-04-10T13:21:08;6.30;;;3.70;;
67500;SDS011;54349;52.528;19.760;2023-04-10T13:23:36;6.20;;;3.60;;
67500;SDS011;54349;52.528;19.760;2023-04-10T13:26:05;8.50;;;3.60;;
67500;SDS011;54349;52.528;19.760;2023-04-10T13:28:37;7.50;;;3.80;;
67500;SDS011;54349;52.528;19.760;2023-04-10T13:31:05;7.80;;;3.70;;
67500;SDS011;54349;52.528;19.760;2023-04-10T13:33:38;6.40;;;3.80;;
67500;SDS011;54349;52.528;19.760;2023-04-10T13:36:08;8.10;;;4.10;;
67500;SDS011;54349;52.528;19.760;2023-04-10T13:38:37;7.80;;;3.60;;
67500;SDS011;54349;52.528;19.760;2023-04-10T13:41:06;7.20;;;4.00;;
67500;SDS011;54349;52.528;19.760;2023-04-10T13:43:35;7.10;;;4.00;;
67500;SDS011;54349;52.528;19.760;2023-04-10T13:46:04;6.90;;;3.50;;
67500;SDS011;54349;52.528;19.760;2023-04-10T13:48:33;6.50;;;3.60;;
67500;SDS011;54349;52.528;19.760;2023-04-10T13:51:08;8.00;;;3.80;;
67500;SDS011;54349;52.528;19.760;2023-04-10T13:53:36;8.00;;;3.60;;
67500;SDS011;54349;52.528;19.760;2023-04-10T13:56:05;6.90;;;3.40;;
67500;SDS011;54349;52.528;19.760;2023-04-10T13:58:35;5.90;;;3.30;;
67500;SDS011;54349;52.528;19.760;2023-04-10T14:01:04;6.10;;;3.50;;
67500;SDS011;54349;52.528;19.760;2023-04-10T14:03:33;7.40;;;3.70;;
67500;SDS011;54349;52.528;19.760;2023-04-10T14:06:01;6.50;;;3.50;;
67500;SDS011;54349;52.528;19.760;2023-04-10T14:08:30;6.40;;;3.50;;
67500;SDS011;54349;52.528;19.760;2023-04-10T14:10:58;5.40;;;3.40;;
67500;SDS011;54349;52.528;19.760;2023-04-10T14:13:26;7.30;;;3.60;;
67500;SDS011;54349;52.528;19.760;2023-04-10T14:15:54;5.70;;;3.00;;
67500;SDS011;54349;52.528;19.760;2023-04-10T14:18:25;5.70;;;3.20;;
67500;SDS011;54349;52.528;19.760;2023-04-10T14:20:54;5.70;;;3.40;;
67500;SDS011;54349;52.528;19.760;2023-04-10T14:23:22;6.30;;;3.40;;
67500;SDS011;54349;52.528;19.760;2023-04-10T14:25:54;5.60;;;3.20;;
67500;SDS011;54349;52.528;19.760;2023-04-10T14:28:22;6.50;;;3.30;;
67500;SDS011;54349;52.528;19.760;2023-04-10T14:30:51;5.70;;;3.30;;
67500;SDS011;54349;52.528;19.760;2023-04-10T14:33:19;5.60;;;3.10;;
67500;SDS011;54349;52.528;19.760;2023-04-10T14:35:49;6.00;;;3.30;;
67500;SDS011;54349;52.528;19.760;2023-04-10T14:38:20;5.80;;;3.20;;
67500;SDS011;54349;52.528;19.760;2023-04-10T14:40:48;5.70;;;3.30;;
67500;SDS011;54349;52.528;19.760;2023-04-10T14:43:17;6.20;;;3.10;;
67500;SDS011;54349;52.528;19.760;2023-04-10T14:45:48;5.70;;;3.30;;
67500;SDS011;54349;52.528;19.760;2023-04-10T14:48:17;6.30;;;3.20;;
67500;SDS011;54349;52.528;19.760;2023-04-10T14:50:46;6.30;;;3.50;;
67500;SDS011;54349;52.528;19.760;2023-04-10T14:53:16;5.30;;;2.90;;
67500;SDS011;54349;52.528;19.760;2023-04-10T14:55:44;5.20;;;3.20;;
67500;SDS011;54349;52.528;19.760;2023-04-10T14:58:13;6.40;;;3.50;;
67500;SDS011;54349;52.528;19.760;2023-04-10T15:00:42;5.20;;;3.20;;
67500;SDS011;54349;52.528;19.760;2023-04-10T15:03:11;5.40;;;3.00;;
67500;SDS011;54349;52.528;19.760;2023-04-10T15:05:40;6.50;;;3.40;;
67500;SDS011;54349;52.528;19.760;2023-04-10T15:08:08;5.00;;;3.10;;
67500;SDS011;54349;52.528;19.760;2023-04-10T15:10:37;5.60;;;2.90;;
67500;SDS011;54349;52.528;19.760;2023-04-10T15:13:05;4.80;;;3.00;;
67500;SDS011;54349;52.528;19.760;2023-04-10T15:15:34;5.90;;;3.30;;
67500;SDS011;54349;52.528;19.760;2023-04-10T15:18:02;6.90;;;3.20;;
67500;SDS011;54349;52.528;19.760;2023-04-10T15:20:31;5.70;;;3.30;;
67500;SDS011;54349;52.528;19.760;2023-04-10T15:22:59;5.20;;;2.90;;
67500;SDS011;54349;52.528;19.760;2023-04-10T15:25:31;5.80;;;3.10;;
67500;SDS011;54349;52.528;19.760;2023-04-10T15:28:01;5.30;;;2.90;;
67500;SDS011;54349;52.528;19.760;2023-04-10T15:30:29;5.20;;;3.00;;
67500;SDS011;54349;52.528;19.760;2023-04-10T15:32:58;6.80;;;3.00;;
67500;SDS011;54349;52.528;19.760;2023-04-10T15:35:28;5.10;;;3.10;;
67500;SDS011;54349;52.528;19.760;2023-04-10T15:38:02;5.40;;;3.00;;
67500;SDS011;54349;52.528;19.760;2023-04-10T15:40:31;5.30;;;3.00;;
67500;SDS011;54349;52.528;19.760;2023-04-10T15:43:00;4.30;;;2.70;;
67500;SDS011;54349;52.528;19.760;2023-04-10T15:45:28;4.60;;;2.70;;
67500;SDS011;54349;52.528;19.760;2023-04-10T15:47:56;4.90;;;3.00;;
67500;SDS011;54349;52.528;19.760;2023-04-10T15:50:28;5.40;;;3.20;;
67500;SDS011;54349;52.528;19.760;2023-04-10T15:52:57;5.50;;;3.20;;